Flight Track Log - Related Links

Times and Time Zones

All times are in EDT time to prevent confusion due to time zone crossing. See the CSJ405 flight status page for this flight to view local times or setup timezone preferences in your user account.

Time Position Orientation Groundspeed Altitude Reporting Facility
EDT Latitude Longitude Course Direction KTS MPH feet Rate Location/Type
Fri 04:28:06 AM 45.6667 -73.9500 90° East 80 92 3,200  Level Montreal Center
Fri 04:29:06 AM 45.6500 -73.9500 180° South 80 92 4,800 1,600 Climbing Montreal Center
Fri 04:30:06 AM 45.6167 -73.9500 180° South 80 92 6,400 1,600 Climbing Montreal Center
Fri 04:31:06 AM 45.6000 -73.9500 180° South 80 92 8,000 1,550 Climbing Montreal Center
Fri 04:32:00 AM 45.3743 -74.0129 180° South  Level Estimated
Fri 04:32:06 AM 45.5833 -73.9500 180° South 70 81 9,500  Level Montreal Center
Fri 04:33:06 AM 45.5500 -73.9500 180° South 110 127 10,000 250 Climbing Montreal Center
Fri 04:34:06 AM 45.5167 -73.9667 199° South 150 173 10,000  Level Montreal Center
Fri 04:35:06 AM 45.4667 -73.9667 180° South 150 173 10,000  Level Montreal Center
Fri 04:36:06 AM 45.4333 -73.9667 180° South 150 173 10,000  Level Montreal Center
Fri 04:37:06 AM 45.3833 -73.9333 155° Southeast 150 173 10,000  Level Montreal Center
Fri 04:38:06 AM 45.3500 -73.9333 180° South 150 173 10,000  Level Montreal Center
Fri 04:39:06 AM 45.3000 -73.9500 193° South 150 173 10,000  Level Montreal Center
Fri 04:40:06 AM 45.2667 -73.9500 180° South 150 173 10,000  Level Montreal Center
Fri 04:41:06 AM 45.2167 -73.9500 180° South 150 173 10,000 50 Level Montreal Center
Fri 04:42:06 AM 45.1833 -73.9167 145° Southeast 150 173 10,100 50 Climbing Montreal Center
Fri 04:43:06 AM 45.1333 -73.9333 193° South 150 173 10,100  Level Montreal Center
Fri 04:44:06 AM 45.1000 -73.9333 180° South 150 173 10,100  Level Montreal Center
Fri 04:45:06 AM 45.0500 -73.9333 180° South 150 173 10,100  Level Montreal Center
Fri 04:46:06 AM 45.0167 -73.9333 180° South 150 173 10,100  Level Montreal Center
Fri 04:47:06 AM 44.9833 -73.9333 180° South 150 173 10,100  Level Montreal Center
Fri 04:48:06 AM 44.9333 -73.9167 167° South 150 173 10,100  Level Montreal Center
Fri 04:49:06 AM 44.9000 -73.9167 180° South 150 173 10,100  Level Montreal Center
Fri 04:50:06 AM 44.8500 -73.9167 180° South 150 173 10,100  Level Montreal Center
Fri 04:50:52 AM 44.8394 -73.9214 198° South 155 178 10,100  Level Boston Center
Fri 04:51:52 AM 44.7997 -73.9203 179° South 155 178 10,100  Level Boston Center
Fri 04:52:52 AM 44.7581 -73.9192 179° South 155 178 10,100  Level Boston Center
Fri 04:53:52 AM 44.7164 -73.9153 176° South 155 178 10,100  Level Boston Center
Fri 04:54:52 AM 44.6747 -73.9142 179° South 155 178 10,100  Level Boston Center
Fri 04:55:52 AM 44.6333 -73.9072 173° South 155 178 10,100  Level Boston Center
Fri 04:56:52 AM 44.5853 -73.9061 179° South 160 184 10,100  Level Boston Center
Fri 04:57:52 AM 44.5436 -73.9022 176° South 160 184 10,100  Level Boston Center
Fri 04:58:52 AM 44.5019 -73.9042 182° South 160 184 10,100  Level Boston Center
Fri 04:59:52 AM 44.4583 -73.9000 176° South 160 184 10,100  Level Boston Center
Fri 05:00:52 AM 44.4167 -73.8961 176° South 160 184 10,100  Level Boston Center
Fri 05:01:52 AM 44.3731 -73.8950 179° South 155 178 10,100  Level Boston Center
Fri 05:02:52 AM 44.3356 -73.8942 179° South 155 178 10,100  Level Boston Center
Fri 05:03:52 AM 44.2958 -73.8903 176° South 155 178 10,100  Level Boston Center
Fri 05:04:52 AM 44.2564 -73.8894 179° South 150 173 10,100  Level Boston Center
Fri 05:05:52 AM 44.2169 -73.8856 176° South 145 167 10,100  Level Boston Center
Fri 05:06:52 AM 44.1814 -73.8817 176° South 140 161 10,100  Level Boston Center
Fri 05:07:52 AM 44.1419 -73.8808 179° South 140 161 10,100  Level Boston Center
Fri 05:08:52 AM 44.1022 -73.8769 176° South 140 161 10,100  Level Boston Center
Fri 05:09:52 AM 44.0647 -73.8761 179° South 140 161 10,100  Level Boston Center
Fri 05:10:52 AM 44.0231 -73.8750 179° South 140 161 10,100  Level Boston Center
Fri 05:11:52 AM 43.9836 -73.8711 176° South 140 161 10,100  Level Boston Center
Fri 05:12:52 AM 43.9442 -73.8703 179° South 140 161 10,100  Level Boston Center
Fri 05:13:52 AM 43.9003 -73.8692 179° South 140 161 10,100  Level Boston Center
Fri 05:14:52 AM 43.8608 -73.8653 176° South 140 161 10,100  Level Boston Center
Fri 05:15:52 AM 43.8192 -73.8617 176° South 140 161 10,100  Level Boston Center
Fri 05:16:52 AM 43.7794 -73.8633 182° South 140 161 10,100  Level Boston Center
Fri 05:17:52 AM 43.7442 -73.8628 179° South 140 161 10,100  Level Boston Center
Fri 05:18:52 AM 43.7025 -73.8589 176° South 140 161 10,100  Level Boston Center
Fri 05:19:52 AM 43.6628 -73.8550 176° South 140 161 10,100  Level Boston Center
Fri 05:20:52 AM 43.6256 -73.8511 176° South 140 161 10,100  Level Boston Center
Fri 05:21:45 AM 43.5858 -73.8533 182° South 146 168 10,100  Level Boston Center
Fri 05:22:52 AM 43.5442 -73.8494 176° South 140 161 10,100  Level Boston Center
Fri 05:22:52 AM 43.5442 -73.8494 176° South 147 169 10,100  Level Boston Center
Fri 05:23:52 AM 43.5047 -73.8456 176° South 140 161 10,100  Level Boston Center
Fri 05:24:52 AM 43.4631 -73.8417 176° South 140 161 10,100  Level Boston Center
Fri 05:25:52 AM 43.4233 -73.8381 176° South 140 161 10,100  Level Boston Center
Fri 05:26:52 AM 43.3775 -73.8397 182° South 140 161 10,100  Level Boston Center
Fri 05:27:52 AM 43.3422 -73.8389 179° South 140 161 10,100 -250 Level Boston Center
Fri 05:28:52 AM 43.2942 -73.8378 179° South 146 168 9,600 -508 Descending Boston Center
Fri 05:30:02 AM 43.2483 -73.8369 179° South 157 181 9,000 -600 Descending Boston Center
Fri 05:30:52 AM 43.2047 -73.8331 176° South 158 182 8,400 -764 Descending Boston Center
Fri 05:31:52 AM 43.1650 -73.8319 179° South 163 188 7,600 -900 Descending Boston Center
Fri 05:32:52 AM 43.1131 -73.8253 175° South 163 188 6,600 -900 Descending Boston Center
Fri 05:33:52 AM 43.0672 -73.8214 176° South 163 188 5,800 -750 Descending Boston Center
Fri 05:34:52 AM 43.0256 -73.8175 176° South 163 188 5,100 -700 Descending Boston Center
Fri 05:35:52 AM 42.9756 -73.8164 179° South 158 182 4,400 -426 Descending Boston Center
Fri 05:37:13 AM 42.9303 -73.7786 149° Southeast 153 176 4,100 -128 Descending Boston Center
Fri 05:38:13 AM 42.8972 -73.7408 140° Southeast 147 169 4,100 -298 Level Boston Center
Fri 05:39:14 AM 42.8581 -73.7231 162° South 157 181 3,500 -645 Descending Boston Center
Fri 05:40:14 AM 42.8142 -73.7278 185° South 160 184 2,800 -793 Descending Boston Center
Fri 05:41:15 AM 42.7681 -73.7383 190° South 160 184 1,900 -938 Descending Boston Center
Fri 05:42:22 AM 42.7492 -73.7661 227° Southwest 80 92 800 -985 Descending Boston Center
Fri 05:44:00 AM 42.7333 -73.8000 180° South  Level FlightAware Approximate

Login

Don't have an account? Register now (free) for customized features, flight alerts, and more!